首页
METAR-TAF:

METAR-TAF

机场 :

尼亞美, 尼日尔

迪奥里·哈马尼国际机场

纬度: 13-29N, 经度: 002-10E, 海拔: 223米

当前天气观测

该预报发布于40分钟前的01:00 UTC
风速3节,风向东转东北
温度 18°C
湿度 18%
气压 1013 hPa
能见度10公里或以上
1500米以下无云,无积雨云

METAR: DRRN 190100Z 07003KT CAVOK 18/M07 Q1013 NOSIG

时间: 02:40 (01:40 UTC)

预报

该预报发布于2小时和40分钟前的23:00 UTC
预报有效从19日的 00点(UTC)到 20日的 06点(UTC)
风速6节,风向东北
能見度: 8000
短暂存在
从 19日的 06点(UTC)到 19日的 09点(UTC)
能見度: 4000
浮尘
短暂存在
从 19日的 18点(UTC)到 19日的 21点(UTC)
能見度: 4000
浮尘

TAF: DRRN 182300Z 1900/2006 04006KT 8000 NSC TEMPO 1906/1909 4000 DU TEMPO 1918/1921 4000 DU

超过4000个机场的气象观测和天气预报(METAR&TAF报告)。

可查询的气象台以黄色和红色小点在地图上表示。

将鼠标移到小点上方,可查看气象台名称。

然后点击查看天气观测和预报。

如需切换地图:点击带黑十字的绿色按钮放大地图;点击带横线的绿色按钮缩小地图;或者点击绿色箭头查看邻近地区的地图。


METAR-TAF: